sensor_id;sensor_type;location;lat;lon;timestamp;P1;durP1;ratioP1;P2;durP2;ratioP2
66870;SDS011;53780;44.998;9.926;2022-09-09T00:02:28;17.37;;;9.10;;
66870;SDS011;53780;44.998;9.926;2022-09-09T00:05:42;17.55;;;9.15;;
66870;SDS011;53780;44.998;9.926;2022-09-09T00:15:31;17.65;;;9.07;;
66870;SDS011;53780;44.998;9.926;2022-09-09T00:22:27;16.77;;;9.50;;
66870;SDS011;53780;44.998;9.926;2022-09-09T00:25:35;17.65;;;9.25;;
66870;SDS011;53780;44.998;9.926;2022-09-09T00:29:05;14.95;;;9.15;;
66870;SDS011;53780;44.998;9.926;2022-09-09T00:32:18;18.55;;;10.23;;
66870;SDS011;53780;44.998;9.926;2022-09-09T00:35:30;19.33;;;10.07;;
66870;SDS011;53780;44.998;9.926;2022-09-09T00:38:38;19.77;;;10.48;;
66870;SDS011;53780;44.998;9.926;2022-09-09T00:48:18;24.35;;;11.40;;
66870;SDS011;53780;44.998;9.926;2022-09-09T00:58:07;25.63;;;12.65;;
66870;SDS011;53780;44.998;9.926;2022-09-09T01:01:12;20.40;;;11.57;;
66870;SDS011;53780;44.998;9.926;2022-09-09T01:04:20;24.00;;;13.70;;
66870;SDS011;53780;44.998;9.926;2022-09-09T01:07:32;28.73;;;15.13;;
66870;SDS011;53780;44.998;9.926;2022-09-09T01:10:39;30.83;;;15.15;;
66870;SDS011;53780;44.998;9.926;2022-09-09T01:17:37;35.13;;;17.45;;
66870;SDS011;53780;44.998;9.926;2022-09-09T01:21:01;33.25;;;17.77;;
66870;SDS011;53780;44.998;9.926;2022-09-09T01:27:45;37.65;;;18.92;;
66870;SDS011;53780;44.998;9.926;2022-09-09T01:30:51;38.05;;;20.48;;
66870;SDS011;53780;44.998;9.926;2022-09-09T01:33:59;36.08;;;18.98;;
66870;SDS011;53780;44.998;9.926;2022-09-09T01:37:06;35.45;;;18.83;;
66870;SDS011;53780;44.998;9.926;2022-09-09T01:40:13;37.70;;;19.43;;
66870;SDS011;53780;44.998;9.926;2022-09-09T01:43:19;35.45;;;19.05;;
66870;SDS011;53780;44.998;9.926;2022-09-09T01:46:24;38.10;;;18.88;;
66870;SDS011;53780;44.998;9.926;2022-09-09T01:49:32;34.10;;;18.15;;
66870;SDS011;53780;44.998;9.926;2022-09-09T01:52:41;34.58;;;18.17;;
66870;SDS011;53780;44.998;9.926;2022-09-09T02:02:44;35.30;;;17.85;;
66870;SDS011;53780;44.998;9.926;2022-09-09T02:06:48;28.77;;;16.63;;
66870;SDS011;53780;44.998;9.926;2022-09-09T02:09:40;34.13;;;16.23;;
66870;SDS011;53780;44.998;9.926;2022-09-09T02:12:54;32.37;;;15.10;;
66870;SDS011;53780;44.998;9.926;2022-09-09T02:16:07;28.35;;;14.77;;
66870;SDS011;53780;44.998;9.926;2022-09-09T02:19:19;27.65;;;15.07;;
66870;SDS011;53780;44.998;9.926;2022-09-09T02:22:42;23.80;;;13.25;;
66870;SDS011;53780;44.998;9.926;2022-09-09T02:25:51;27.83;;;14.80;;
66870;SDS011;53780;44.998;9.926;2022-09-09T02:29:01;28.47;;;13.40;;
66870;SDS011;53780;44.998;9.926;2022-09-09T02:32:09;24.23;;;13.38;;
66870;SDS011;53780;44.998;9.926;2022-09-09T02:35:26;26.08;;;13.68;;
66870;SDS011;53780;44.998;9.926;2022-09-09T02:38:32;26.73;;;13.35;;
66870;SDS011;53780;44.998;9.926;2022-09-09T02:41:45;27.65;;;14.40;;
66870;SDS011;53780;44.998;9.926;2022-09-09T02:44:49;31.83;;;15.30;;
66870;SDS011;53780;44.998;9.926;2022-09-09T02:51:18;32.55;;;16.92;;
66870;SDS011;53780;44.998;9.926;2022-09-09T02:54:40;40.10;;;17.30;;
66870;SDS011;53780;44.998;9.926;2022-09-09T02:57:48;30.08;;;17.23;;
66870;SDS011;53780;44.998;9.926;2022-09-09T03:00:54;29.87;;;15.43;;
66870;SDS011;53780;44.998;9.926;2022-09-09T03:04:01;30.52;;;14.77;;
66870;SDS011;53780;44.998;9.926;2022-09-09T03:07:08;26.50;;;14.85;;
66870;SDS011;53780;44.998;9.926;2022-09-09T03:10:13;27.63;;;14.32;;
66870;SDS011;53780;44.998;9.926;2022-09-09T03:13:19;26.58;;;15.25;;
66870;SDS011;53780;44.998;9.926;2022-09-09T03:16:23;33.53;;;16.27;;
66870;SDS011;53780;44.998;9.926;2022-09-09T03:19:29;36.33;;;17.67;;
66870;SDS011;53780;44.998;9.926;2022-09-09T03:22:34;34.35;;;18.58;;
66870;SDS011;53780;44.998;9.926;2022-09-09T03:25:38;36.72;;;18.92;;
66870;SDS011;53780;44.998;9.926;2022-09-09T03:28:43;39.28;;;19.35;;
66870;SDS011;53780;44.998;9.926;2022-09-09T03:31:49;41.00;;;21.17;;
66870;SDS011;53780;44.998;9.926;2022-09-09T03:34:54;40.05;;;21.30;;
66870;SDS011;53780;44.998;9.926;2022-09-09T03:37:58;42.28;;;21.35;;
66870;SDS011;53780;44.998;9.926;2022-09-09T03:41:04;42.42;;;21.17;;
66870;SDS011;53780;44.998;9.926;2022-09-09T03:44:11;42.05;;;22.60;;
66870;SDS011;53780;44.998;9.926;2022-09-09T03:47:18;42.20;;;21.57;;
66870;SDS011;53780;44.998;9.926;2022-09-09T03:50:26;42.28;;;21.05;;
66870;SDS011;53780;44.998;9.926;2022-09-09T03:53:29;47.20;;;21.77;;
66870;SDS011;53780;44.998;9.926;2022-09-09T03:56:34;42.97;;;20.73;;
66870;SDS011;53780;44.998;9.926;2022-09-09T03:59:38;37.80;;;20.98;;
66870;SDS011;53780;44.998;9.926;2022-09-09T04:02:42;44.03;;;21.60;;
66870;SDS011;53780;44.998;9.926;2022-09-09T04:05:50;40.10;;;20.92;;
66870;SDS011;53780;44.998;9.926;2022-09-09T04:08:55;43.83;;;21.42;;
66870;SDS011;53780;44.998;9.926;2022-09-09T04:12:00;44.58;;;21.77;;
66870;SDS011;53780;44.998;9.926;2022-09-09T04:15:03;46.63;;;21.63;;
66870;SDS011;53780;44.998;9.926;2022-09-09T04:18:11;43.03;;;21.97;;
66870;SDS011;53780;44.998;9.926;2022-09-09T04:21:15;44.80;;;22.02;;
66870;SDS011;53780;44.998;9.926;2022-09-09T04:24:19;43.95;;;22.33;;
66870;SDS011;53780;44.998;9.926;2022-09-09T04:27:26;41.67;;;20.70;;
66870;SDS011;53780;44.998;9.926;2022-09-09T04:30:30;43.50;;;21.83;;
66870;SDS011;53780;44.998;9.926;2022-09-09T04:33:35;40.43;;;20.67;;
66870;SDS011;53780;44.998;9.926;2022-09-09T04:36:39;41.95;;;20.25;;
66870;SDS011;53780;44.998;9.926;2022-09-09T04:39:44;46.45;;;20.48;;
66870;SDS011;53780;44.998;9.926;2022-09-09T04:42:48;41.92;;;21.00;;
66870;SDS011;53780;44.998;9.926;2022-09-09T04:45:53;40.50;;;20.92;;
66870;SDS011;53780;44.998;9.926;2022-09-09T04:49:00;39.27;;;21.30;;
66870;SDS011;53780;44.998;9.926;2022-09-09T04:52:07;41.38;;;20.90;;
66870;SDS011;53780;44.998;9.926;2022-09-09T04:55:12;42.67;;;19.75;;
66870;SDS011;53780;44.998;9.926;2022-09-09T04:58:20;36.10;;;18.15;;
66870;SDS011;53780;44.998;9.926;2022-09-09T05:01:26;32.97;;;17.85;;
66870;SDS011;53780;44.998;9.926;2022-09-09T05:04:37;30.27;;;15.60;;
66870;SDS011;53780;44.998;9.926;2022-09-09T05:07:42;27.98;;;15.18;;
66870;SDS011;53780;44.998;9.926;2022-09-09T05:10:46;29.58;;;15.10;;
66870;SDS011;53780;44.998;9.926;2022-09-09T05:13:50;28.92;;;14.95;;
66870;SDS011;53780;44.998;9.926;2022-09-09T05:16:55;27.90;;;14.23;;
66870;SDS011;53780;44.998;9.926;2022-09-09T05:20:01;28.43;;;14.70;;
66870;SDS011;53780;44.998;9.926;2022-09-09T05:23:08;27.98;;;13.75;;
66870;SDS011;53780;44.998;9.926;2022-09-09T05:26:14;23.95;;;13.30;;
66870;SDS011;53780;44.998;9.926;2022-09-09T05:29:24;23.10;;;13.23;;
66870;SDS011;53780;44.998;9.926;2022-09-09T05:32:29;26.55;;;13.38;;
66870;SDS011;53780;44.998;9.926;2022-09-09T05:35:35;28.23;;;14.37;;
66870;SDS011;53780;44.998;9.926;2022-09-09T05:38:41;25.20;;;13.38;;
66870;SDS011;53780;44.998;9.926;2022-09-09T05:41:47;26.80;;;12.45;;
66870;SDS011;53780;44.998;9.926;2022-09-09T05:44:51;24.63;;;12.52;;
66870;SDS011;53780;44.998;9.926;2022-09-09T05:47:58;25.60;;;12.00;;
66870;SDS011;53780;44.998;9.926;2022-09-09T05:51:04;21.50;;;11.73;;
66870;SDS011;53780;44.998;9.926;2022-09-09T05:54:12;20.33;;;10.27;;
66870;SDS011;53780;44.998;9.926;2022-09-09T05:57:20;19.65;;;9.77;;
66870;SDS011;53780;44.998;9.926;2022-09-09T06:00:25;19.73;;;9.98;;
66870;SDS011;53780;44.998;9.926;2022-09-09T06:03:29;20.05;;;10.18;;
66870;SDS011;53780;44.998;9.926;2022-09-09T06:06:34;18.97;;;9.90;;
66870;SDS011;53780;44.998;9.926;2022-09-09T06:09:41;19.70;;;9.18;;
66870;SDS011;53780;44.998;9.926;2022-09-09T06:12:45;21.13;;;8.80;;
66870;SDS011;53780;44.998;9.926;2022-09-09T06:15:52;17.30;;;7.13;;
66870;SDS011;53780;44.998;9.926;2022-09-09T06:18:57;15.82;;;6.43;;
66870;SDS011;53780;44.998;9.926;2022-09-09T06:22:03;13.30;;;6.83;;
66870;SDS011;53780;44.998;9.926;2022-09-09T06:25:11;14.95;;;6.75;;
66870;SDS011;53780;44.998;9.926;2022-09-09T06:28:16;10.70;;;5.78;;
66870;SDS011;53780;44.998;9.926;2022-09-09T06:31:22;12.00;;;5.50;;
66870;SDS011;53780;44.998;9.926;2022-09-09T06:34:28;14.75;;;7.70;;
66870;SDS011;53780;44.998;9.926;2022-09-09T06:37:34;12.60;;;6.40;;
66870;SDS011;53780;44.998;9.926;2022-09-09T06:40:38;16.00;;;7.63;;
66870;SDS011;53780;44.998;9.926;2022-09-09T06:43:43;14.20;;;8.82;;
66870;SDS011;53780;44.998;9.926;2022-09-09T06:46:49;16.63;;;8.90;;
66870;SDS011;53780;44.998;9.926;2022-09-09T06:49:53;19.73;;;10.63;;
66870;SDS011;53780;44.998;9.926;2022-09-09T06:52:57;17.70;;;11.10;;
66870;SDS011;53780;44.998;9.926;2022-09-09T06:59:15;19.30;;;11.32;;
66870;SDS011;53780;44.998;9.926;2022-09-09T07:02:18;19.58;;;10.93;;
66870;SDS011;53780;44.998;9.926;2022-09-09T07:05:24;21.42;;;11.60;;
66870;SDS011;53780;44.998;9.926;2022-09-09T07:08:29;20.77;;;11.57;;
66870;SDS011;53780;44.998;9.926;2022-09-09T07:11:45;22.42;;;11.65;;
66870;SDS011;53780;44.998;9.926;2022-09-09T07:14:57;21.27;;;12.00;;
66870;SDS011;53780;44.998;9.926;2022-09-09T07:18:01;18.85;;;11.23;;
66870;SDS011;53780;44.998;9.926;2022-09-09T07:21:06;19.80;;;11.35;;
66870;SDS011;53780;44.998;9.926;2022-09-09T07:24:11;22.93;;;12.43;;
66870;SDS011;53780;44.998;9.926;2022-09-09T07:27:17;23.20;;;12.45;;
66870;SDS011;53780;44.998;9.926;2022-09-09T07:30:22;22.77;;;12.27;;
66870;SDS011;53780;44.998;9.926;2022-09-09T07:33:26;22.90;;;12.13;;
66870;SDS011;53780;44.998;9.926;2022-09-09T07:36:31;24.83;;;12.75;;
66870;SDS011;53780;44.998;9.926;2022-09-09T07:39:38;29.60;;;14.30;;
66870;SDS011;53780;44.998;9.926;2022-09-09T07:42:42;27.15;;;13.93;;
66870;SDS011;53780;44.998;9.926;2022-09-09T07:45:46;27.70;;;15.40;;
66870;SDS011;53780;44.998;9.926;2022-09-09T07:48:54;30.42;;;14.80;;
66870;SDS011;53780;44.998;9.926;2022-09-09T07:52:04;31.48;;;15.07;;
66870;SDS011;53780;44.998;9.926;2022-09-09T07:55:08;27.07;;;14.00;;
66870;SDS011;53780;44.998;9.926;2022-09-09T07:58:13;28.38;;;13.63;;
66870;SDS011;53780;44.998;9.926;2022-09-09T08:01:19;27.02;;;14.13;;
66870;SDS011;53780;44.998;9.926;2022-09-09T08:04:28;32.65;;;13.05;;
66870;SDS011;53780;44.998;9.926;2022-09-09T08:07:32;24.40;;;12.90;;
66870;SDS011;53780;44.998;9.926;2022-09-09T08:10:37;25.50;;;12.57;;
66870;SDS011;53780;44.998;9.926;2022-09-09T08:13:41;23.90;;;12.52;;
66870;SDS011;53780;44.998;9.926;2022-09-09T08:16:47;22.95;;;11.27;;
66870;SDS011;53780;44.998;9.926;2022-09-09T08:19:55;23.17;;;11.68;;
66870;SDS011;53780;44.998;9.926;2022-09-09T08:23:03;25.33;;;12.82;;
66870;SDS011;53780;44.998;9.926;2022-09-09T08:26:12;24.03;;;11.70;;
66870;SDS011;53780;44.998;9.926;2022-09-09T08:29:26;27.67;;;11.77;;
66870;SDS011;53780;44.998;9.926;2022-09-09T08:32:32;24.98;;;12.45;;
66870;SDS011;53780;44.998;9.926;2022-09-09T08:35:36;23.83;;;11.63;;
66870;SDS011;53780;44.998;9.926;2022-09-09T08:38:41;25.15;;;11.68;;
66870;SDS011;53780;44.998;9.926;2022-09-09T08:41:53;25.53;;;11.50;;
66870;SDS011;53780;44.998;9.926;2022-09-09T08:52:45;24.95;;;10.80;;
66870;SDS011;53780;44.998;9.926;2022-09-09T08:56:03;23.83;;;11.80;;
66870;SDS011;53780;44.998;9.926;2022-09-09T08:59:24;23.57;;;11.03;;
66870;SDS011;53780;44.998;9.926;2022-09-09T09:02:34;23.20;;;11.82;;
66870;SDS011;53780;44.998;9.926;2022-09-09T09:05:47;25.67;;;11.68;;
66870;SDS011;53780;44.998;9.926;2022-09-09T09:12:56;25.50;;;11.63;;
66870;SDS011;53780;44.998;9.926;2022-09-09T09:16:06;26.87;;;12.63;;
66870;SDS011;53780;44.998;9.926;2022-09-09T09:19:22;25.05;;;11.73;;
66870;SDS011;53780;44.998;9.926;2022-09-09T09:22:30;24.77;;;11.48;;
66870;SDS011;53780;44.998;9.926;2022-09-09T09:25:43;19.20;;;8.65;;
66870;SDS011;53780;44.998;9.926;2022-09-09T09:28:48;23.67;;;10.85;;
66870;SDS011;53780;44.998;9.926;2022-09-09T09:31:55;20.00;;;9.63;;
66870;SDS011;53780;44.998;9.926;2022-09-09T09:35:06;20.70;;;10.93;;
66870;SDS011;53780;44.998;9.926;2022-09-09T09:38:19;10.18;;;4.70;;
66870;SDS011;53780;44.998;9.926;2022-09-09T09:41:33;10.80;;;4.13;;
66870;SDS011;53780;44.998;9.926;2022-09-09T09:44:43;7.75;;;3.83;;
66870;SDS011;53780;44.998;9.926;2022-09-09T09:47:58;8.57;;;4.03;;
66870;SDS011;53780;44.998;9.926;2022-09-09T09:51:06;10.00;;;3.60;;
66870;SDS011;53780;44.998;9.926;2022-09-09T09:54:23;9.60;;;3.53;;
66870;SDS011;53780;44.998;9.926;2022-09-09T09:57:34;8.27;;;3.38;;
66870;SDS011;53780;44.998;9.926;2022-09-09T10:00:51;6.68;;;3.42;;
66870;SDS011;53780;44.998;9.926;2022-09-09T10:04:13;6.60;;;3.30;;
66870;SDS011;53780;44.998;9.926;2022-09-09T10:07:24;7.50;;;3.50;;
66870;SDS011;53780;44.998;9.926;2022-09-09T10:14:20;9.73;;;3.00;;
66870;SDS011;53780;44.998;9.926;2022-09-09T10:24:30;7.30;;;3.33;;
66870;SDS011;53780;44.998;9.926;2022-09-09T10:44:06;7.70;;;4.03;;
66870;SDS011;53780;44.998;9.926;2022-09-09T10:50:45;8.23;;;3.70;;
66870;SDS011;53780;44.998;9.926;2022-09-09T10:54:32;7.07;;;3.43;;
66870;SDS011;53780;44.998;9.926;2022-09-09T10:57:41;9.98;;;3.95;;
66870;SDS011;53780;44.998;9.926;2022-09-09T11:00:47;11.30;;;4.00;;
66870;SDS011;53780;44.998;9.926;2022-09-09T11:03:59;8.57;;;3.47;;
66870;SDS011;53780;44.998;9.926;2022-09-09T11:07:09;6.72;;;3.13;;
66870;SDS011;53780;44.998;9.926;2022-09-09T11:10:24;7.70;;;3.20;;
66870;SDS011;53780;44.998;9.926;2022-09-09T11:17:01;12.02;;;4.47;;
66870;SDS011;53780;44.998;9.926;2022-09-09T11:20:11;9.52;;;3.35;;
66870;SDS011;53780;44.998;9.926;2022-09-09T11:23:25;8.30;;;3.75;;
66870;SDS011;53780;44.998;9.926;2022-09-09T11:26:41;7.20;;;4.23;;
66870;SDS011;53780;44.998;9.926;2022-09-09T11:33:27;7.88;;;4.03;;
66870;SDS011;53780;44.998;9.926;2022-09-09T11:36:48;6.82;;;3.00;;
66870;SDS011;53780;44.998;9.926;2022-09-09T11:43:43;7.17;;;3.57;;
66870;SDS011;53780;44.998;9.926;2022-09-09T11:46:49;6.53;;;3.40;;
66870;SDS011;53780;44.998;9.926;2022-09-09T11:50:07;8.57;;;4.07;;
66870;SDS011;53780;44.998;9.926;2022-09-09T11:53:29;8.05;;;3.80;;
66870;SDS011;53780;44.998;9.926;2022-09-09T11:56:43;6.55;;;3.45;;
66870;SDS011;53780;44.998;9.926;2022-09-09T11:59:51;8.63;;;3.47;;
66870;SDS011;53780;44.998;9.926;2022-09-09T12:02:55;9.38;;;4.32;;
66870;SDS011;53780;44.998;9.926;2022-09-09T12:05:59;10.27;;;4.13;;
66870;SDS011;53780;44.998;9.926;2022-09-09T12:09:44;7.65;;;4.05;;
66870;SDS011;53780;44.998;9.926;2022-09-09T12:12:53;5.88;;;3.40;;
66870;SDS011;53780;44.998;9.926;2022-09-09T12:15:58;7.67;;;3.30;;
66870;SDS011;53780;44.998;9.926;2022-09-09T12:26:11;8.00;;;3.00;;
66870;SDS011;53780;44.998;9.926;2022-09-09T12:29:37;9.55;;;3.33;;
66870;SDS011;53780;44.998;9.926;2022-09-09T12:33:08;6.07;;;2.90;;
66870;SDS011;53780;44.998;9.926;2022-09-09T12:36:20;11.20;;;3.45;;
66870;SDS011;53780;44.998;9.926;2022-09-09T12:39:37;8.40;;;3.33;;
66870;SDS011;53780;44.998;9.926;2022-09-09T12:42:50;9.48;;;3.33;;
66870;SDS011;53780;44.998;9.926;2022-09-09T12:46:01;7.20;;;3.03;;
66870;SDS011;53780;44.998;9.926;2022-09-09T12:52:38;5.93;;;2.65;;
66870;SDS011;53780;44.998;9.926;2022-09-09T12:55:49;6.80;;;3.08;;
66870;SDS011;53780;44.998;9.926;2022-09-09T12:58:55;7.93;;;3.08;;
66870;SDS011;53780;44.998;9.926;2022-09-09T13:02:01;6.82;;;3.00;;
66870;SDS011;53780;44.998;9.926;2022-09-09T13:05:14;8.23;;;3.00;;
66870;SDS011;53780;44.998;9.926;2022-09-09T13:08:21;6.13;;;2.63;;
66870;SDS011;53780;44.998;9.926;2022-09-09T13:14:32;5.70;;;2.83;;
66870;SDS011;53780;44.998;9.926;2022-09-09T13:17:40;8.52;;;2.80;;
66870;SDS011;53780;44.998;9.926;2022-09-09T13:20:48;6.93;;;2.60;;
66870;SDS011;53780;44.998;9.926;2022-09-09T13:23:53;7.28;;;2.85;;
66870;SDS011;53780;44.998;9.926;2022-09-09T13:27:01;6.68;;;2.90;;
66870;SDS011;53780;44.998;9.926;2022-09-09T13:33:33;7.28;;;3.22;;
66870;SDS011;53780;44.998;9.926;2022-09-09T13:36:39;5.67;;;3.00;;
66870;SDS011;53780;44.998;9.926;2022-09-09T13:39:50;8.23;;;3.85;;
66870;SDS011;53780;44.998;9.926;2022-09-09T13:42:59;6.45;;;3.22;;
66870;SDS011;53780;44.998;9.926;2022-09-09T13:46:04;9.30;;;3.80;;
66870;SDS011;53780;44.998;9.926;2022-09-09T13:49:26;7.82;;;3.70;;
66870;SDS011;53780;44.998;9.926;2022-09-09T13:52:32;10.07;;;3.90;;
66870;SDS011;53780;44.998;9.926;2022-09-09T13:55:35;8.35;;;4.70;;
66870;SDS011;53780;44.998;9.926;2022-09-09T13:58:40;11.02;;;4.20;;
66870;SDS011;53780;44.998;9.926;2022-09-09T14:01:43;7.75;;;3.63;;
66870;SDS011;53780;44.998;9.926;2022-09-09T14:04:47;8.32;;;3.80;;
66870;SDS011;53780;44.998;9.926;2022-09-09T14:07:54;9.87;;;4.30;;
66870;SDS011;53780;44.998;9.926;2022-09-09T14:10:57;10.10;;;4.80;;
66870;SDS011;53780;44.998;9.926;2022-09-09T14:14:01;10.45;;;4.35;;
66870;SDS011;53780;44.998;9.926;2022-09-09T14:17:05;9.90;;;3.90;;
66870;SDS011;53780;44.998;9.926;2022-09-09T14:20:10;9.43;;;4.00;;
66870;SDS011;53780;44.998;9.926;2022-09-09T14:23:15;11.03;;;3.70;;
66870;SDS011;53780;44.998;9.926;2022-09-09T14:26:20;7.53;;;3.83;;
66870;SDS011;53780;44.998;9.926;2022-09-09T14:29:25;9.07;;;4.78;;
66870;SDS011;53780;44.998;9.926;2022-09-09T14:32:29;9.95;;;3.95;;
66870;SDS011;53780;44.998;9.926;2022-09-09T14:35:35;10.43;;;4.32;;
66870;SDS011;53780;44.998;9.926;2022-09-09T14:38:39;8.60;;;4.47;;
66870;SDS011;53780;44.998;9.926;2022-09-09T14:41:43;10.00;;;4.60;;
66870;SDS011;53780;44.998;9.926;2022-09-09T14:44:46;9.30;;;4.18;;
66870;SDS011;53780;44.998;9.926;2022-09-09T14:47:51;8.30;;;4.50;;
66870;SDS011;53780;44.998;9.926;2022-09-09T14:50:54;9.48;;;4.07;;
66870;SDS011;53780;44.998;9.926;2022-09-09T14:53:59;8.33;;;3.83;;
66870;SDS011;53780;44.998;9.926;2022-09-09T14:57:03;12.73;;;3.75;;
66870;SDS011;53780;44.998;9.926;2022-09-09T15:00:07;9.13;;;3.58;;
66870;SDS011;53780;44.998;9.926;2022-09-09T15:03:12;7.07;;;3.40;;
66870;SDS011;53780;44.998;9.926;2022-09-09T15:06:16;8.65;;;3.60;;
66870;SDS011;53780;44.998;9.926;2022-09-09T15:09:20;10.60;;;4.47;;
66870;SDS011;53780;44.998;9.926;2022-09-09T15:12:24;6.97;;;3.90;;
66870;SDS011;53780;44.998;9.926;2022-09-09T15:15:27;8.70;;;3.65;;
66870;SDS011;53780;44.998;9.926;2022-09-09T15:18:32;8.63;;;3.42;;
66870;SDS011;53780;44.998;9.926;2022-09-09T15:21:37;10.40;;;3.70;;
66870;SDS011;53780;44.998;9.926;2022-09-09T15:24:41;9.47;;;4.30;;
66870;SDS011;53780;44.998;9.926;2022-09-09T15:27:45;11.35;;;4.68;;
66870;SDS011;53780;44.998;9.926;2022-09-09T15:30:49;9.10;;;4.60;;
66870;SDS011;53780;44.998;9.926;2022-09-09T15:33:56;9.82;;;4.20;;
66870;SDS011;53780;44.998;9.926;2022-09-09T15:37:03;8.95;;;3.90;;
66870;SDS011;53780;44.998;9.926;2022-09-09T15:40:07;10.37;;;3.90;;
66870;SDS011;53780;44.998;9.926;2022-09-09T15:43:12;9.15;;;4.28;;
66870;SDS011;53780;44.998;9.926;2022-09-09T15:49:21;9.77;;;4.32;;
66870;SDS011;53780;44.998;9.926;2022-09-09T15:52:28;8.48;;;4.05;;
66870;SDS011;53780;44.998;9.926;2022-09-09T15:55:32;9.07;;;3.40;;
66870;SDS011;53780;44.998;9.926;2022-09-09T15:58:36;8.35;;;4.13;;
66870;SDS011;53780;44.998;9.926;2022-09-09T16:01:40;10.57;;;3.90;;
66870;SDS011;53780;44.998;9.926;2022-09-09T16:04:45;10.40;;;4.22;;
66870;SDS011;53780;44.998;9.926;2022-09-09T16:07:49;7.90;;;3.95;;
66870;SDS011;53780;44.998;9.926;2022-09-09T16:10:52;9.73;;;4.07;;
66870;SDS011;53780;44.998;9.926;2022-09-09T16:13:58;10.57;;;4.40;;
66870;SDS011;53780;44.998;9.926;2022-09-09T16:17:03;10.35;;;4.35;;
66870;SDS011;53780;44.998;9.926;2022-09-09T16:20:08;8.00;;;4.05;;
66870;SDS011;53780;44.998;9.926;2022-09-09T16:23:12;10.73;;;3.90;;
66870;SDS011;53780;44.998;9.926;2022-09-09T16:26:17;9.47;;;4.50;;
66870;SDS011;53780;44.998;9.926;2022-09-09T16:29:21;8.65;;;4.40;;
66870;SDS011;53780;44.998;9.926;2022-09-09T16:32:26;8.95;;;3.90;;
66870;SDS011;53780;44.998;9.926;2022-09-09T16:35:30;8.43;;;4.38;;
66870;SDS011;53780;44.998;9.926;2022-09-09T16:38:34;9.60;;;4.03;;
66870;SDS011;53780;44.998;9.926;2022-09-09T16:41:40;6.57;;;3.30;;
66870;SDS011;53780;44.998;9.926;2022-09-09T16:44:45;8.57;;;3.20;;
66870;SDS011;53780;44.998;9.926;2022-09-09T16:47:49;7.10;;;3.45;;
66870;SDS011;53780;44.998;9.926;2022-09-09T16:50:52;10.20;;;3.42;;
66870;SDS011;53780;44.998;9.926;2022-09-09T16:54:00;8.88;;;3.45;;
66870;SDS011;53780;44.998;9.926;2022-09-09T16:57:06;7.43;;;3.50;;
66870;SDS011;53780;44.998;9.926;2022-09-09T17:00:10;7.78;;;3.38;;
66870;SDS011;53780;44.998;9.926;2022-09-09T17:03:14;9.07;;;3.25;;
66870;SDS011;53780;44.998;9.926;2022-09-09T17:06:18;8.43;;;3.70;;
66870;SDS011;53780;44.998;9.926;2022-09-09T17:09:23;9.35;;;4.05;;
66870;SDS011;53780;44.998;9.926;2022-09-09T17:12:32;7.23;;;3.50;;
66870;SDS011;53780;44.998;9.926;2022-09-09T17:15:40;10.00;;;3.97;;
66870;SDS011;53780;44.998;9.926;2022-09-09T17:18:51;9.63;;;3.80;;
66870;SDS011;53780;44.998;9.926;2022-09-09T17:21:57;7.47;;;3.67;;
66870;SDS011;53780;44.998;9.926;2022-09-09T17:25:02;10.43;;;4.50;;
66870;SDS011;53780;44.998;9.926;2022-09-09T17:28:08;8.70;;;4.03;;
66870;SDS011;53780;44.998;9.926;2022-09-09T17:31:13;7.88;;;4.20;;
66870;SDS011;53780;44.998;9.926;2022-09-09T17:34:19;8.98;;;4.60;;
66870;SDS011;53780;44.998;9.926;2022-09-09T17:37:23;12.27;;;4.80;;
66870;SDS011;53780;44.998;9.926;2022-09-09T17:40:29;10.18;;;4.93;;
66870;SDS011;53780;44.998;9.926;2022-09-09T17:43:34;7.90;;;4.40;;
66870;SDS011;53780;44.998;9.926;2022-09-09T17:46:41;11.55;;;4.50;;
66870;SDS011;53780;44.998;9.926;2022-09-09T17:49:46;9.32;;;4.82;;
66870;SDS011;53780;44.998;9.926;2022-09-09T17:52:49;11.82;;;5.05;;
66870;SDS011;53780;44.998;9.926;2022-09-09T17:55:53;10.82;;;4.88;;
66870;SDS011;53780;44.998;9.926;2022-09-09T17:58:59;15.27;;;5.30;;
66870;SDS011;53780;44.998;9.926;2022-09-09T18:02:04;11.23;;;5.68;;
66870;SDS011;53780;44.998;9.926;2022-09-09T18:05:08;12.77;;;6.70;;
66870;SDS011;53780;44.998;9.926;2022-09-09T18:08:13;15.07;;;6.25;;
66870;SDS011;53780;44.998;9.926;2022-09-09T18:11:17;11.40;;;6.28;;
66870;SDS011;53780;44.998;9.926;2022-09-09T18:14:23;15.30;;;6.23;;
66870;SDS011;53780;44.998;9.926;2022-09-09T18:17:29;12.25;;;6.68;;
66870;SDS011;53780;44.998;9.926;2022-09-09T18:20:34;13.07;;;6.45;;
66870;SDS011;53780;44.998;9.926;2022-09-09T18:23:39;12.35;;;5.95;;
66870;SDS011;53780;44.998;9.926;2022-09-09T18:26:51;9.38;;;5.80;;
66870;SDS011;53780;44.998;9.926;2022-09-09T18:29:55;12.10;;;6.00;;
66870;SDS011;53780;44.998;9.926;2022-09-09T18:33:00;10.57;;;5.75;;
66870;SDS011;53780;44.998;9.926;2022-09-09T18:36:08;12.55;;;5.72;;
66870;SDS011;53780;44.998;9.926;2022-09-09T18:39:17;13.20;;;5.40;;
66870;SDS011;53780;44.998;9.926;2022-09-09T18:42:22;15.00;;;5.43;;
66870;SDS011;53780;44.998;9.926;2022-09-09T18:45:26;12.50;;;4.97;;
66870;SDS011;53780;44.998;9.926;2022-09-09T18:48:33;8.95;;;4.13;;
66870;SDS011;53780;44.998;9.926;2022-09-09T18:51:37;7.50;;;3.35;;
66870;SDS011;53780;44.998;9.926;2022-09-09T18:54:43;8.07;;;2.75;;
66870;SDS011;53780;44.998;9.926;2022-09-09T18:57:48;6.18;;;1.98;;
66870;SDS011;53780;44.998;9.926;2022-09-09T19:00:53;10.23;;;2.10;;
66870;SDS011;53780;44.998;9.926;2022-09-09T19:03:58;5.72;;;1.80;;
66870;SDS011;53780;44.998;9.926;2022-09-09T19:07:03;6.30;;;1.45;;
66870;SDS011;53780;44.998;9.926;2022-09-09T19:10:07;5.60;;;1.30;;
66870;SDS011;53780;44.998;9.926;2022-09-09T19:13:11;4.65;;;1.45;;
66870;SDS011;53780;44.998;9.926;2022-09-09T19:16:15;15.13;;;1.53;;
66870;SDS011;53780;44.998;9.926;2022-09-09T19:19:21;6.68;;;1.30;;
66870;SDS011;53780;44.998;9.926;2022-09-09T19:22:27;4.95;;;1.20;;
66870;SDS011;53780;44.998;9.926;2022-09-09T19:25:35;6.22;;;1.10;;
66870;SDS011;53780;44.998;9.926;2022-09-09T19:28:39;7.28;;;1.20;;
66870;SDS011;53780;44.998;9.926;2022-09-09T19:31:43;5.10;;;1.13;;
66870;SDS011;53780;44.998;9.926;2022-09-09T19:34:49;5.45;;;1.20;;
66870;SDS011;53780;44.998;9.926;2022-09-09T19:37:54;4.57;;;1.13;;
66870;SDS011;53780;44.998;9.926;2022-09-09T19:41:02;6.47;;;1.08;;
66870;SDS011;53780;44.998;9.926;2022-09-09T19:44:09;8.23;;;1.20;;
66870;SDS011;53780;44.998;9.926;2022-09-09T19:47:16;6.20;;;1.30;;
66870;SDS011;53780;44.998;9.926;2022-09-09T19:50:21;5.90;;;1.40;;
66870;SDS011;53780;44.998;9.926;2022-09-09T19:53:25;4.72;;;1.30;;
66870;SDS011;53780;44.998;9.926;2022-09-09T19:56:29;4.72;;;1.08;;
66870;SDS011;53780;44.998;9.926;2022-09-09T19:59:35;5.88;;;1.30;;
66870;SDS011;53780;44.998;9.926;2022-09-09T20:02:39;6.30;;;1.37;;
66870;SDS011;53780;44.998;9.926;2022-09-09T20:05:47;6.15;;;1.30;;
66870;SDS011;53780;44.998;9.926;2022-09-09T20:08:52;5.90;;;1.40;;
66870;SDS011;53780;44.998;9.926;2022-09-09T20:11:56;7.65;;;1.60;;
66870;SDS011;53780;44.998;9.926;2022-09-09T20:15:01;5.30;;;1.50;;
66870;SDS011;53780;44.998;9.926;2022-09-09T20:18:06;8.50;;;1.50;;
66870;SDS011;53780;44.998;9.926;2022-09-09T20:21:14;6.68;;;1.77;;
66870;SDS011;53780;44.998;9.926;2022-09-09T20:24:25;7.88;;;1.80;;
66870;SDS011;53780;44.998;9.926;2022-09-09T20:27:30;6.18;;;1.58;;
66870;SDS011;53780;44.998;9.926;2022-09-09T20:30:35;5.55;;;1.27;;